sensor_id;sensor_type;location;lat;lon;timestamp;P1;durP1;ratioP1;P2;durP2;ratioP2
74741;SDS011;76291;48.288;16.314;2024-02-21T00:00:01;10.7;;;3.9;;
74741;SDS011;76291;48.288;16.314;2024-02-21T00:01:01;10.7;;;3.9;;
74741;SDS011;76291;48.288;16.314;2024-02-21T00:02:01;10.7;;;3.9;;
74741;SDS011;76291;48.288;16.314;2024-02-21T00:03:01;10.7;;;3.9;;
74741;SDS011;76291;48.288;16.314;2024-02-21T00:04:01;13.5;;;4.0;;
74741;SDS011;76291;48.288;16.314;2024-02-21T00:05:01;13.5;;;4.0;;
74741;SDS011;76291;48.288;16.314;2024-02-21T00:06:01;13.5;;;4.0;;
74741;SDS011;76291;48.288;16.314;2024-02-21T00:07:01;13.5;;;4.0;;
74741;SDS011;76291;48.288;16.314;2024-02-21T00:08:02;13.5;;;4.0;;
74741;SDS011;76291;48.288;16.314;2024-02-21T00:09:01;8.8;;;3.6;;
74741;SDS011;76291;48.288;16.314;2024-02-21T00:10:01;8.8;;;3.6;;
74741;SDS011;76291;48.288;16.314;2024-02-21T00:11:01;8.8;;;3.6;;
74741;SDS011;76291;48.288;16.314;2024-02-21T00:12:01;8.8;;;3.6;;
74741;SDS011;76291;48.288;16.314;2024-02-21T00:13:01;8.8;;;3.6;;
74741;SDS011;76291;48.288;16.314;2024-02-21T00:14:01;10.8;;;3.7;;
74741;SDS011;76291;48.288;16.314;2024-02-21T00:15:01;10.8;;;3.7;;
74741;SDS011;76291;48.288;16.314;2024-02-21T00:16:01;10.8;;;3.7;;
74741;SDS011;76291;48.288;16.314;2024-02-21T00:17:01;10.8;;;3.7;;
74741;SDS011;76291;48.288;16.314;2024-02-21T00:18:01;10.8;;;3.7;;
74741;SDS011;76291;48.288;16.314;2024-02-21T00:19:01;15.5;;;4.1;;
74741;SDS011;76291;48.288;16.314;2024-02-21T00:20:03;15.5;;;4.1;;
74741;SDS011;76291;48.288;16.314;2024-02-21T00:21:01;15.5;;;4.1;;
74741;SDS011;76291;48.288;16.314;2024-02-21T00:22:01;15.5;;;4.1;;
74741;SDS011;76291;48.288;16.314;2024-02-21T00:23:01;15.5;;;4.1;;
74741;SDS011;76291;48.288;16.314;2024-02-21T00:24:01;11.0;;;3.7;;
74741;SDS011;76291;48.288;16.314;2024-02-21T00:25:01;11.0;;;3.7;;
74741;SDS011;76291;48.288;16.314;2024-02-21T00:26:03;11.0;;;3.7;;
74741;SDS011;76291;48.288;16.314;2024-02-21T00:27:00;11.0;;;3.7;;
74741;SDS011;76291;48.288;16.314;2024-02-21T00:28:00;11.0;;;3.7;;
74741;SDS011;76291;48.288;16.314;2024-02-21T00:29:00;11.6;;;3.6;;
74741;SDS011;76291;48.288;16.314;2024-02-21T00:30:00;11.6;;;3.6;;
74741;SDS011;76291;48.288;16.314;2024-02-21T00:31:00;11.6;;;3.6;;
74741;SDS011;76291;48.288;16.314;2024-02-21T00:32:00;11.6;;;3.6;;
74741;SDS011;76291;48.288;16.314;2024-02-21T00:33:00;11.6;;;3.6;;
74741;SDS011;76291;48.288;16.314;2024-02-21T00:34:00;11.8;;;3.5;;
74741;SDS011;76291;48.288;16.314;2024-02-21T00:35:00;11.8;;;3.5;;
74741;SDS011;76291;48.288;16.314;2024-02-21T00:36:00;11.8;;;3.5;;
74741;SDS011;76291;48.288;16.314;2024-02-21T00:37:01;11.8;;;3.5;;
74741;SDS011;76291;48.288;16.314;2024-02-21T00:38:00;11.8;;;3.5;;
74741;SDS011;76291;48.288;16.314;2024-02-21T00:39:00;10.3;;;3.7;;
74741;SDS011;76291;48.288;16.314;2024-02-21T00:40:00;10.3;;;3.7;;
74741;SDS011;76291;48.288;16.314;2024-02-21T00:41:00;10.3;;;3.7;;
74741;SDS011;76291;48.288;16.314;2024-02-21T00:42:00;10.3;;;3.7;;
74741;SDS011;76291;48.288;16.314;2024-02-21T00:43:00;10.3;;;3.7;;
74741;SDS011;76291;48.288;16.314;2024-02-21T00:44:00;12.8;;;3.8;;
74741;SDS011;76291;48.288;16.314;2024-02-21T00:45:00;12.8;;;3.8;;
74741;SDS011;76291;48.288;16.314;2024-02-21T00:46:00;12.8;;;3.8;;
74741;SDS011;76291;48.288;16.314;2024-02-21T00:47:00;12.8;;;3.8;;
74741;SDS011;76291;48.288;16.314;2024-02-21T00:48:00;12.8;;;3.8;;
74741;SDS011;76291;48.288;16.314;2024-02-21T00:49:00;10.0;;;3.3;;
74741;SDS011;76291;48.288;16.314;2024-02-21T00:50:00;10.0;;;3.3;;
74741;SDS011;76291;48.288;16.314;2024-02-21T00:51:00;10.0;;;3.3;;
74741;SDS011;76291;48.288;16.314;2024-02-21T00:52:00;10.0;;;3.3;;
74741;SDS011;76291;48.288;16.314;2024-02-21T00:53:00;10.0;;;3.3;;
74741;SDS011;76291;48.288;16.314;2024-02-21T00:54:00;9.0;;;3.4;;
74741;SDS011;76291;48.288;16.314;2024-02-21T00:55:00;9.0;;;3.4;;
74741;SDS011;76291;48.288;16.314;2024-02-21T00:56:00;9.0;;;3.4;;
74741;SDS011;76291;48.288;16.314;2024-02-21T00:57:00;9.0;;;3.4;;
74741;SDS011;76291;48.288;16.314;2024-02-21T00:58:00;9.0;;;3.4;;
74741;SDS011;76291;48.288;16.314;2024-02-21T00:59:00;8.6;;;3.2;;
74741;SDS011;76291;48.288;16.314;2024-02-21T01:00:01;8.6;;;3.2;;
74741;SDS011;76291;48.288;16.314;2024-02-21T01:01:00;8.6;;;3.2;;
74741;SDS011;76291;48.288;16.314;2024-02-21T01:02:00;8.6;;;3.2;;
74741;SDS011;76291;48.288;16.314;2024-02-21T01:03:00;8.6;;;3.2;;
74741;SDS011;76291;48.288;16.314;2024-02-21T01:04:00;9.3;;;3.9;;
74741;SDS011;76291;48.288;16.314;2024-02-21T01:05:02;9.3;;;3.9;;
74741;SDS011;76291;48.288;16.314;2024-02-21T01:06:00;9.3;;;3.9;;
74741;SDS011;76291;48.288;16.314;2024-02-21T01:07:00;9.3;;;3.9;;
74741;SDS011;76291;48.288;16.314;2024-02-21T01:08:00;9.3;;;3.9;;
74741;SDS011;76291;48.288;16.314;2024-02-21T01:09:00;11.4;;;3.7;;
74741;SDS011;76291;48.288;16.314;2024-02-21T01:10:00;11.4;;;3.7;;
74741;SDS011;76291;48.288;16.314;2024-02-21T01:11:00;11.4;;;3.7;;
74741;SDS011;76291;48.288;16.314;2024-02-21T01:12:00;11.4;;;3.7;;
74741;SDS011;76291;48.288;16.314;2024-02-21T01:13:00;11.4;;;3.7;;
74741;SDS011;76291;48.288;16.314;2024-02-21T01:14:00;11.3;;;3.8;;
74741;SDS011;76291;48.288;16.314;2024-02-21T01:15:00;11.3;;;3.8;;
74741;SDS011;76291;48.288;16.314;2024-02-21T01:16:03;11.3;;;3.8;;
74741;SDS011;76291;48.288;16.314;2024-02-21T01:17:02;11.3;;;3.8;;
74741;SDS011;76291;48.288;16.314;2024-02-21T01:18:00;11.3;;;3.8;;
74741;SDS011;76291;48.288;16.314;2024-02-21T01:19:00;10.8;;;3.4;;
74741;SDS011;76291;48.288;16.314;2024-02-21T01:20:00;10.8;;;3.4;;
74741;SDS011;76291;48.288;16.314;2024-02-21T01:21:00;10.8;;;3.4;;
74741;SDS011;76291;48.288;16.314;2024-02-21T01:22:00;10.8;;;3.4;;
74741;SDS011;76291;48.288;16.314;2024-02-21T01:23:00;10.8;;;3.4;;
74741;SDS011;76291;48.288;16.314;2024-02-21T01:24:00;11.7;;;3.7;;
74741;SDS011;76291;48.288;16.314;2024-02-21T01:25:00;11.7;;;3.7;;
74741;SDS011;76291;48.288;16.314;2024-02-21T01:26:00;11.7;;;3.7;;
74741;SDS011;76291;48.288;16.314;2024-02-21T01:27:00;11.7;;;3.7;;
74741;SDS011;76291;48.288;16.314;2024-02-21T01:28:02;11.7;;;3.7;;
74741;SDS011;76291;48.288;16.314;2024-02-21T01:29:00;12.6;;;3.5;;
74741;SDS011;76291;48.288;16.314;2024-02-21T01:30:00;12.6;;;3.5;;
74741;SDS011;76291;48.288;16.314;2024-02-21T01:31:00;12.6;;;3.5;;
74741;SDS011;76291;48.288;16.314;2024-02-21T01:32:00;12.6;;;3.5;;
74741;SDS011;76291;48.288;16.314;2024-02-21T01:33:00;12.6;;;3.5;;
74741;SDS011;76291;48.288;16.314;2024-02-21T01:34:00;8.7;;;3.2;;
74741;SDS011;76291;48.288;16.314;2024-02-21T01:35:00;8.7;;;3.2;;
74741;SDS011;76291;48.288;16.314;2024-02-21T01:36:01;8.7;;;3.2;;
74741;SDS011;76291;48.288;16.314;2024-02-21T01:37:00;8.7;;;3.2;;
74741;SDS011;76291;48.288;16.314;2024-02-21T01:38:00;8.7;;;3.2;;
74741;SDS011;76291;48.288;16.314;2024-02-21T01:39:00;14.1;;;3.7;;
74741;SDS011;76291;48.288;16.314;2024-02-21T01:40:00;14.1;;;3.7;;
74741;SDS011;76291;48.288;16.314;2024-02-21T01:41:00;14.1;;;3.7;;
74741;SDS011;76291;48.288;16.314;2024-02-21T01:42:00;14.1;;;3.7;;
74741;SDS011;76291;48.288;16.314;2024-02-21T01:43:00;14.1;;;3.7;;
74741;SDS011;76291;48.288;16.314;2024-02-21T01:44:00;12.7;;;3.8;;
74741;SDS011;76291;48.288;16.314;2024-02-21T01:45:00;12.7;;;3.8;;
74741;SDS011;76291;48.288;16.314;2024-02-21T01:46:00;12.7;;;3.8;;
74741;SDS011;76291;48.288;16.314;2024-02-21T01:47:00;12.7;;;3.8;;
74741;SDS011;76291;48.288;16.314;2024-02-21T01:48:00;12.7;;;3.8;;
74741;SDS011;76291;48.288;16.314;2024-02-21T01:49:00;12.8;;;3.7;;
74741;SDS011;76291;48.288;16.314;2024-02-21T01:50:01;12.8;;;3.7;;
74741;SDS011;76291;48.288;16.314;2024-02-21T01:51:03;12.8;;;3.7;;
74741;SDS011;76291;48.288;16.314;2024-02-21T01:52:01;12.8;;;3.7;;
74741;SDS011;76291;48.288;16.314;2024-02-21T01:53:03;12.8;;;3.7;;
74741;SDS011;76291;48.288;16.314;2024-02-21T01:54:00;10.8;;;3.6;;
74741;SDS011;76291;48.288;16.314;2024-02-21T01:55:00;10.8;;;3.6;;
74741;SDS011;76291;48.288;16.314;2024-02-21T01:56:00;10.8;;;3.6;;
74741;SDS011;76291;48.288;16.314;2024-02-21T01:57:00;10.8;;;3.6;;
74741;SDS011;76291;48.288;16.314;2024-02-21T01:58:00;10.8;;;3.6;;
74741;SDS011;76291;48.288;16.314;2024-02-21T01:59:00;12.8;;;4.0;;
74741;SDS011;76291;48.288;16.314;2024-02-21T02:00:00;12.8;;;4.0;;
74741;SDS011;76291;48.288;16.314;2024-02-21T02:01:00;12.8;;;4.0;;
74741;SDS011;76291;48.288;16.314;2024-02-21T02:02:00;12.8;;;4.0;;
74741;SDS011;76291;48.288;16.314;2024-02-21T02:03:00;12.8;;;4.0;;
74741;SDS011;76291;48.288;16.314;2024-02-21T02:04:00;13.0;;;4.0;;
74741;SDS011;76291;48.288;16.314;2024-02-21T02:05:00;13.0;;;4.0;;
74741;SDS011;76291;48.288;16.314;2024-02-21T02:06:00;13.0;;;4.0;;
74741;SDS011;76291;48.288;16.314;2024-02-21T02:07:02;13.0;;;4.0;;
74741;SDS011;76291;48.288;16.314;2024-02-21T02:08:00;13.0;;;4.0;;
74741;SDS011;76291;48.288;16.314;2024-02-21T02:09:00;15.1;;;4.1;;
74741;SDS011;76291;48.288;16.314;2024-02-21T02:10:01;15.1;;;4.1;;
74741;SDS011;76291;48.288;16.314;2024-02-21T02:11:00;15.1;;;4.1;;
74741;SDS011;76291;48.288;16.314;2024-02-21T02:12:01;15.1;;;4.1;;
74741;SDS011;76291;48.288;16.314;2024-02-21T02:13:00;15.1;;;4.1;;
74741;SDS011;76291;48.288;16.314;2024-02-21T02:14:00;11.1;;;3.7;;
74741;SDS011;76291;48.288;16.314;2024-02-21T02:15:01;11.1;;;3.7;;
74741;SDS011;76291;48.288;16.314;2024-02-21T02:16:00;11.1;;;3.7;;
74741;SDS011;76291;48.288;16.314;2024-02-21T02:17:00;11.1;;;3.7;;
74741;SDS011;76291;48.288;16.314;2024-02-21T02:18:00;11.1;;;3.7;;
74741;SDS011;76291;48.288;16.314;2024-02-21T02:19:00;14.0;;;3.9;;
74741;SDS011;76291;48.288;16.314;2024-02-21T02:20:00;14.0;;;3.9;;
74741;SDS011;76291;48.288;16.314;2024-02-21T02:21:00;14.0;;;3.9;;
74741;SDS011;76291;48.288;16.314;2024-02-21T02:22:09;14.0;;;3.9;;
74741;SDS011;76291;48.288;16.314;2024-02-21T02:23:04;14.0;;;3.9;;
74741;SDS011;76291;48.288;16.314;2024-02-21T02:24:00;11.3;;;3.7;;
74741;SDS011;76291;48.288;16.314;2024-02-21T02:25:01;11.3;;;3.7;;
74741;SDS011;76291;48.288;16.314;2024-02-21T02:26:00;11.3;;;3.7;;
74741;SDS011;76291;48.288;16.314;2024-02-21T02:27:00;11.3;;;3.7;;
74741;SDS011;76291;48.288;16.314;2024-02-21T02:28:06;11.3;;;3.7;;
74741;SDS011;76291;48.288;16.314;2024-02-21T02:29:02;12.8;;;3.6;;
74741;SDS011;76291;48.288;16.314;2024-02-21T02:30:00;12.8;;;3.6;;
74741;SDS011;76291;48.288;16.314;2024-02-21T02:31:00;12.8;;;3.6;;
74741;SDS011;76291;48.288;16.314;2024-02-21T02:32:00;12.8;;;3.6;;
74741;SDS011;76291;48.288;16.314;2024-02-21T02:33:00;12.8;;;3.6;;
74741;SDS011;76291;48.288;16.314;2024-02-21T02:34:00;11.5;;;3.7;;
74741;SDS011;76291;48.288;16.314;2024-02-21T02:35:00;11.5;;;3.7;;
74741;SDS011;76291;48.288;16.314;2024-02-21T02:36:00;11.5;;;3.7;;
74741;SDS011;76291;48.288;16.314;2024-02-21T02:37:00;11.5;;;3.7;;
74741;SDS011;76291;48.288;16.314;2024-02-21T02:38:00;11.5;;;3.7;;
74741;SDS011;76291;48.288;16.314;2024-02-21T02:39:00;12.3;;;3.6;;
74741;SDS011;76291;48.288;16.314;2024-02-21T02:40:00;12.3;;;3.6;;
74741;SDS011;76291;48.288;16.314;2024-02-21T02:41:00;12.3;;;3.6;;
74741;SDS011;76291;48.288;16.314;2024-02-21T02:42:01;12.3;;;3.6;;
74741;SDS011;76291;48.288;16.314;2024-02-21T02:43:00;12.3;;;3.6;;
74741;SDS011;76291;48.288;16.314;2024-02-21T02:44:00;12.0;;;3.8;;
74741;SDS011;76291;48.288;16.314;2024-02-21T02:45:00;12.0;;;3.8;;
74741;SDS011;76291;48.288;16.314;2024-02-21T02:46:00;12.0;;;3.8;;
74741;SDS011;76291;48.288;16.314;2024-02-21T02:47:00;12.0;;;3.8;;
74741;SDS011;76291;48.288;16.314;2024-02-21T02:48:00;12.0;;;3.8;;
74741;SDS011;76291;48.288;16.314;2024-02-21T02:49:00;10.0;;;3.5;;
74741;SDS011;76291;48.288;16.314;2024-02-21T02:50:00;10.0;;;3.5;;
74741;SDS011;76291;48.288;16.314;2024-02-21T02:51:00;10.0;;;3.5;;
74741;SDS011;76291;48.288;16.314;2024-02-21T02:52:00;10.0;;;3.5;;
74741;SDS011;76291;48.288;16.314;2024-02-21T02:53:00;10.0;;;3.5;;
74741;SDS011;76291;48.288;16.314;2024-02-21T02:54:00;10.5;;;4.1;;
74741;SDS011;76291;48.288;16.314;2024-02-21T02:55:00;10.5;;;4.1;;
74741;SDS011;76291;48.288;16.314;2024-02-21T02:56:00;10.5;;;4.1;;
74741;SDS011;76291;48.288;16.314;2024-02-21T02:57:00;10.5;;;4.1;;
74741;SDS011;76291;48.288;16.314;2024-02-21T02:58:00;10.5;;;4.1;;
74741;SDS011;76291;48.288;16.314;2024-02-21T02:59:00;11.5;;;3.7;;
74741;SDS011;76291;48.288;16.314;2024-02-21T03:00:00;11.5;;;3.7;;
74741;SDS011;76291;48.288;16.314;2024-02-21T03:01:00;11.5;;;3.7;;
74741;SDS011;76291;48.288;16.314;2024-02-21T03:02:00;11.5;;;3.7;;
74741;SDS011;76291;48.288;16.314;2024-02-21T03:03:00;11.5;;;3.7;;
74741;SDS011;76291;48.288;16.314;2024-02-21T03:04:00;11.2;;;3.6;;
74741;SDS011;76291;48.288;16.314;2024-02-21T03:05:00;11.2;;;3.6;;
74741;SDS011;76291;48.288;16.314;2024-02-21T03:06:00;11.2;;;3.6;;
74741;SDS011;76291;48.288;16.314;2024-02-21T03:07:00;11.2;;;3.6;;
74741;SDS011;76291;48.288;16.314;2024-02-21T03:08:00;11.2;;;3.6;;
74741;SDS011;76291;48.288;16.314;2024-02-21T03:09:00;8.9;;;3.5;;
74741;SDS011;76291;48.288;16.314;2024-02-21T03:10:00;8.9;;;3.5;;
74741;SDS011;76291;48.288;16.314;2024-02-21T03:11:02;8.9;;;3.5;;
74741;SDS011;76291;48.288;16.314;2024-02-21T03:12:00;8.9;;;3.5;;
74741;SDS011;76291;48.288;16.314;2024-02-21T03:13:00;8.9;;;3.5;;
74741;SDS011;76291;48.288;16.314;2024-02-21T03:14:00;12.5;;;3.7;;
74741;SDS011;76291;48.288;16.314;2024-02-21T03:15:00;12.5;;;3.7;;
74741;SDS011;76291;48.288;16.314;2024-02-21T03:16:00;12.5;;;3.7;;
74741;SDS011;76291;48.288;16.314;2024-02-21T03:17:00;12.5;;;3.7;;
74741;SDS011;76291;48.288;16.314;2024-02-21T03:18:00;12.5;;;3.7;;
74741;SDS011;76291;48.288;16.314;2024-02-21T03:19:00;10.4;;;3.2;;
74741;SDS011;76291;48.288;16.314;2024-02-21T03:20:01;10.4;;;3.2;;
74741;SDS011;76291;48.288;16.314;2024-02-21T03:21:00;10.4;;;3.2;;
74741;SDS011;76291;48.288;16.314;2024-02-21T03:22:00;10.4;;;3.2;;
74741;SDS011;76291;48.288;16.314;2024-02-21T03:23:00;10.4;;;3.2;;
74741;SDS011;76291;48.288;16.314;2024-02-21T03:24:00;11.8;;;3.5;;
74741;SDS011;76291;48.288;16.314;2024-02-21T03:25:00;11.8;;;3.5;;
74741;SDS011;76291;48.288;16.314;2024-02-21T03:26:00;11.8;;;3.5;;
74741;SDS011;76291;48.288;16.314;2024-02-21T03:27:00;11.8;;;3.5;;
74741;SDS011;76291;48.288;16.314;2024-02-21T03:28:00;11.8;;;3.5;;
74741;SDS011;76291;48.288;16.314;2024-02-21T03:29:00;13.0;;;3.7;;
74741;SDS011;76291;48.288;16.314;2024-02-21T03:30:00;13.0;;;3.7;;
74741;SDS011;76291;48.288;16.314;2024-02-21T03:31:00;13.0;;;3.7;;
74741;SDS011;76291;48.288;16.314;2024-02-21T03:32:00;13.0;;;3.7;;
74741;SDS011;76291;48.288;16.314;2024-02-21T03:33:00;13.0;;;3.7;;
74741;SDS011;76291;48.288;16.314;2024-02-21T03:34:00;13.8;;;3.9;;
74741;SDS011;76291;48.288;16.314;2024-02-21T03:35:00;13.8;;;3.9;;
74741;SDS011;76291;48.288;16.314;2024-02-21T03:36:00;13.8;;;3.9;;
74741;SDS011;76291;48.288;16.314;2024-02-21T03:37:00;13.8;;;3.9;;
74741;SDS011;76291;48.288;16.314;2024-02-21T03:38:00;13.8;;;3.9;;
74741;SDS011;76291;48.288;16.314;2024-02-21T03:39:00;10.2;;;3.3;;
74741;SDS011;76291;48.288;16.314;2024-02-21T03:40:00;10.2;;;3.3;;
74741;SDS011;76291;48.288;16.314;2024-02-21T03:41:00;10.2;;;3.3;;
74741;SDS011;76291;48.288;16.314;2024-02-21T03:42:00;10.2;;;3.3;;
74741;SDS011;76291;48.288;16.314;2024-02-21T03:43:00;10.2;;;3.3;;
74741;SDS011;76291;48.288;16.314;2024-02-21T03:44:00;11.7;;;3.5;;
74741;SDS011;76291;48.288;16.314;2024-02-21T03:45:00;11.7;;;3.5;;
74741;SDS011;76291;48.288;16.314;2024-02-21T03:46:00;11.7;;;3.5;;
74741;SDS011;76291;48.288;16.314;2024-02-21T03:47:00;11.7;;;3.5;;
74741;SDS011;76291;48.288;16.314;2024-02-21T03:48:00;11.7;;;3.5;;
74741;SDS011;76291;48.288;16.314;2024-02-21T03:49:00;11.3;;;3.7;;
74741;SDS011;76291;48.288;16.314;2024-02-21T03:50:00;11.3;;;3.7;;
74741;SDS011;76291;48.288;16.314;2024-02-21T03:51:00;11.3;;;3.7;;
74741;SDS011;76291;48.288;16.314;2024-02-21T03:52:00;11.3;;;3.7;;
74741;SDS011;76291;48.288;16.314;2024-02-21T03:53:00;11.3;;;3.7;;
74741;SDS011;76291;48.288;16.314;2024-02-21T03:54:00;13.7;;;4.0;;
74741;SDS011;76291;48.288;16.314;2024-02-21T03:55:00;13.7;;;4.0;;
74741;SDS011;76291;48.288;16.314;2024-02-21T03:56:02;13.7;;;4.0;;
74741;SDS011;76291;48.288;16.314;2024-02-21T03:57:00;13.7;;;4.0;;
74741;SDS011;76291;48.288;16.314;2024-02-21T03:58:00;13.7;;;4.0;;
74741;SDS011;76291;48.288;16.314;2024-02-21T03:59:00;10.2;;;3.9;;
74741;SDS011;76291;48.288;16.314;2024-02-21T04:00:00;10.2;;;3.9;;
74741;SDS011;76291;48.288;16.314;2024-02-21T04:01:00;10.2;;;3.9;;
74741;SDS011;76291;48.288;16.314;2024-02-21T04:02:00;10.2;;;3.9;;
74741;SDS011;76291;48.288;16.314;2024-02-21T04:03:00;10.2;;;3.9;;
74741;SDS011;76291;48.288;16.314;2024-02-21T04:04:00;11.0;;;4.0;;
74741;SDS011;76291;48.288;16.314;2024-02-21T04:05:00;11.0;;;4.0;;
74741;SDS011;76291;48.288;16.314;2024-02-21T04:06:00;11.0;;;4.0;;
74741;SDS011;76291;48.288;16.314;2024-02-21T04:07:00;11.0;;;4.0;;
74741;SDS011;76291;48.288;16.314;2024-02-21T04:08:03;11.0;;;3.9;;
74741;SDS011;76291;48.288;16.314;2024-02-21T04:09:00;12.1;;;3.9;;
74741;SDS011;76291;48.288;16.314;2024-02-21T04:10:00;12.1;;;3.9;;
74741;SDS011;76291;48.288;16.314;2024-02-21T04:11:00;12.1;;;3.9;;
74741;SDS011;76291;48.288;16.314;2024-02-21T04:12:00;12.1;;;3.9;;
74741;SDS011;76291;48.288;16.314;2024-02-21T04:13:00;12.1;;;3.9;;
74741;SDS011;76291;48.288;16.314;2024-02-21T04:14:00;12.6;;;4.0;;
74741;SDS011;76291;48.288;16.314;2024-02-21T04:15:00;12.6;;;4.0;;
74741;SDS011;76291;48.288;16.314;2024-02-21T04:16:00;12.6;;;4.0;;
74741;SDS011;76291;48.288;16.314;2024-02-21T04:17:00;12.6;;;4.0;;
74741;SDS011;76291;48.288;16.314;2024-02-21T04:18:00;12.6;;;4.0;;
74741;SDS011;76291;48.288;16.314;2024-02-21T04:19:00;12.1;;;4.1;;
74741;SDS011;76291;48.288;16.314;2024-02-21T04:20:03;12.1;;;4.1;;
74741;SDS011;76291;48.288;16.314;2024-02-21T04:21:00;12.1;;;4.1;;
74741;SDS011;76291;48.288;16.314;2024-02-21T04:22:03;12.1;;;4.1;;
74741;SDS011;76291;48.288;16.314;2024-02-21T04:23:00;12.1;;;4.1;;
74741;SDS011;76291;48.288;16.314;2024-02-21T04:24:00;12.5;;;3.8;;
74741;SDS011;76291;48.288;16.314;2024-02-21T04:25:00;12.5;;;3.8;;
74741;SDS011;76291;48.288;16.314;2024-02-21T04:26:00;12.5;;;3.8;;
74741;SDS011;76291;48.288;16.314;2024-02-21T04:27:00;12.5;;;3.8;;
74741;SDS011;76291;48.288;16.314;2024-02-21T04:28:00;12.5;;;3.8;;
74741;SDS011;76291;48.288;16.314;2024-02-21T04:29:00;10.8;;;3.9;;
74741;SDS011;76291;48.288;16.314;2024-02-21T04:30:00;10.8;;;3.9;;
74741;SDS011;76291;48.288;16.314;2024-02-21T04:31:00;10.8;;;3.9;;
74741;SDS011;76291;48.288;16.314;2024-02-21T04:32:01;10.8;;;3.9;;
74741;SDS011;76291;48.288;16.314;2024-02-21T04:33:00;10.8;;;3.9;;
74741;SDS011;76291;48.288;16.314;2024-02-21T04:34:00;10.9;;;4.1;;
74741;SDS011;76291;48.288;16.314;2024-02-21T04:35:00;10.9;;;4.1;;
74741;SDS011;76291;48.288;16.314;2024-02-21T04:36:00;10.9;;;4.1;;
74741;SDS011;76291;48.288;16.314;2024-02-21T04:37:00;10.9;;;4.1;;
74741;SDS011;76291;48.288;16.314;2024-02-21T04:38:00;10.9;;;4.1;;
74741;SDS011;76291;48.288;16.314;2024-02-21T04:39:00;13.4;;;3.9;;
74741;SDS011;76291;48.288;16.314;2024-02-21T04:40:00;13.4;;;3.9;;
74741;SDS011;76291;48.288;16.314;2024-02-21T04:41:00;13.4;;;3.9;;
74741;SDS011;76291;48.288;16.314;2024-02-21T04:42:00;13.4;;;3.9;;
74741;SDS011;76291;48.288;16.314;2024-02-21T04:43:00;13.4;;;4.3;;
74741;SDS011;76291;48.288;16.314;2024-02-21T04:44:00;14.9;;;4.3;;
74741;SDS011;76291;48.288;16.314;2024-02-21T04:45:00;14.9;;;4.3;;
74741;SDS011;76291;48.288;16.314;2024-02-21T04:46:00;14.9;;;4.3;;
74741;SDS011;76291;48.288;16.314;2024-02-21T04:47:00;14.9;;;4.3;;
74741;SDS011;76291;48.288;16.314;2024-02-21T04:48:00;10.5;;;4.1;;
74741;SDS011;76291;48.288;16.314;2024-02-21T04:49:00;10.5;;;4.1;;
74741;SDS011;76291;48.288;16.314;2024-02-21T04:50:00;10.5;;;4.1;;
74741;SDS011;76291;48.288;16.314;2024-02-21T04:51:00;10.5;;;4.1;;
74741;SDS011;76291;48.288;16.314;2024-02-21T04:52:00;10.5;;;4.1;;
74741;SDS011;76291;48.288;16.314;2024-02-21T04:53:00;11.3;;;4.1;;
74741;SDS011;76291;48.288;16.314;2024-02-21T04:54:00;11.3;;;4.1;;
74741;SDS011;76291;48.288;16.314;2024-02-21T04:55:00;11.3;;;4.1;;
74741;SDS011;76291;48.288;16.314;2024-02-21T04:56:00;11.3;;;4.1;;
74741;SDS011;76291;48.288;16.314;2024-02-21T04:57:00;11.3;;;4.1;;
74741;SDS011;76291;48.288;16.314;2024-02-21T04:58:00;12.8;;;4.2;;
74741;SDS011;76291;48.288;16.314;2024-02-21T04:59:00;12.8;;;4.2;;
74741;SDS011;76291;48.288;16.314;2024-02-21T05:00:00;12.8;;;4.2;;
74741;SDS011;76291;48.288;16.314;2024-02-21T05:01:00;12.8;;;4.2;;
74741;SDS011;76291;48.288;16.314;2024-02-21T05:02:00;12.8;;;4.2;;
74741;SDS011;76291;48.288;16.314;2024-02-21T05:03:00;10.8;;;4.1;;
74741;SDS011;76291;48.288;16.314;2024-02-21T05:04:02;10.8;;;4.1;;
74741;SDS011;76291;48.288;16.314;2024-02-21T05:05:00;10.8;;;4.1;;
74741;SDS011;76291;48.288;16.314;2024-02-21T05:06:00;10.8;;;4.1;;
74741;SDS011;76291;48.288;16.314;2024-02-21T05:07:00;10.8;;;4.1;;
74741;SDS011;76291;48.288;16.314;2024-02-21T05:08:00;13.2;;;4.7;;
74741;SDS011;76291;48.288;16.314;2024-02-21T05:09:00;13.2;;;4.7;;
74741;SDS011;76291;48.288;16.314;2024-02-21T05:10:07;13.2;;;4.7;;
74741;SDS011;76291;48.288;16.314;2024-02-21T05:11:00;13.2;;;4.7;;
74741;SDS011;76291;48.288;16.314;2024-02-21T05:12:00;13.2;;;4.7;;
74741;SDS011;76291;48.288;16.314;2024-02-21T05:13:00;12.1;;;4.2;;
74741;SDS011;76291;48.288;16.314;2024-02-21T05:14:00;12.1;;;4.2;;
74741;SDS011;76291;48.288;16.314;2024-02-21T05:15:01;12.1;;;4.2;;
74741;SDS011;76291;48.288;16.314;2024-02-21T05:16:00;12.1;;;4.2;;
74741;SDS011;76291;48.288;16.314;2024-02-21T05:17:00;12.1;;;4.2;;
74741;SDS011;76291;48.288;16.314;2024-02-21T05:18:00;11.0;;;4.3;;
74741;SDS011;76291;48.288;16.314;2024-02-21T05:19:00;11.0;;;4.3;;
74741;SDS011;76291;48.288;16.314;2024-02-21T05:20:00;11.0;;;4.3;;
74741;SDS011;76291;48.288;16.314;2024-02-21T05:21:00;11.0;;;4.3;;
74741;SDS011;76291;48.288;16.314;2024-02-21T05:22:00;11.0;;;4.3;;
74741;SDS011;76291;48.288;16.314;2024-02-21T05:23:00;12.9;;;4.3;;
74741;SDS011;76291;48.288;16.314;2024-02-21T05:24:00;12.9;;;4.3;;
74741;SDS011;76291;48.288;16.314;2024-02-21T05:25:00;12.9;;;4.3;;
74741;SDS011;76291;48.288;16.314;2024-02-21T05:26:00;12.9;;;4.3;;
74741;SDS011;76291;48.288;16.314;2024-02-21T05:27:00;12.9;;;4.3;;
74741;SDS011;76291;48.288;16.314;2024-02-21T05:28:00;13.4;;;4.7;;
74741;SDS011;76291;48.288;16.314;2024-02-21T05:29:00;13.4;;;4.7;;
74741;SDS011;76291;48.288;16.314;2024-02-21T05:30:00;13.4;;;4.7;;
74741;SDS011;76291;48.288;16.314;2024-02-21T05:31:00;13.4;;;4.7;;
74741;SDS011;76291;48.288;16.314;2024-02-21T05:32:00;13.4;;;4.7;;
74741;SDS011;76291;48.288;16.314;2024-02-21T05:33:05;12.7;;;4.1;;
74741;SDS011;76291;48.288;16.314;2024-02-21T05:34:00;12.7;;;4.1;;
74741;SDS011;76291;48.288;16.314;2024-02-21T05:35:03;12.7;;;4.1;;
74741;SDS011;76291;48.288;16.314;2024-02-21T05:36:00;12.7;;;4.1;;
74741;SDS011;76291;48.288;16.314;2024-02-21T05:37:00;12.7;;;4.1;;
74741;SDS011;76291;48.288;16.314;2024-02-21T05:38:00;8.9;;;3.9;;
74741;SDS011;76291;48.288;16.314;2024-02-21T05:39:00;8.9;;;3.9;;
74741;SDS011;76291;48.288;16.314;2024-02-21T05:40:00;8.9;;;3.9;;
74741;SDS011;76291;48.288;16.314;2024-02-21T05:41:00;8.9;;;3.9;;
74741;SDS011;76291;48.288;16.314;2024-02-21T05:42:00;8.9;;;3.9;;
74741;SDS011;76291;48.288;16.314;2024-02-21T05:43:00;8.6;;;3.4;;
74741;SDS011;76291;48.288;16.314;2024-02-21T05:44:00;8.6;;;3.4;;
74741;SDS011;76291;48.288;16.314;2024-02-21T05:45:00;8.6;;;3.4;;
74741;SDS011;76291;48.288;16.314;2024-02-21T05:46:00;8.6;;;3.4;;
74741;SDS011;76291;48.288;16.314;2024-02-21T05:47:00;8.6;;;3.4;;
74741;SDS011;76291;48.288;16.314;2024-02-21T05:48:00;13.3;;;3.7;;
74741;SDS011;76291;48.288;16.314;2024-02-21T05:49:00;13.3;;;3.7;;
74741;SDS011;76291;48.288;16.314;2024-02-21T05:50:00;13.3;;;3.7;;
74741;SDS011;76291;48.288;16.314;2024-02-21T05:51:01;13.3;;;3.7;;
74741;SDS011;76291;48.288;16.314;2024-02-21T05:52:04;13.3;;;3.7;;
74741;SDS011;76291;48.288;16.314;2024-02-21T05:53:00;13.7;;;4.0;;
74741;SDS011;76291;48.288;16.314;2024-02-21T05:54:00;13.7;;;4.0;;
74741;SDS011;76291;48.288;16.314;2024-02-21T05:55:00;13.7;;;4.0;;
74741;SDS011;76291;48.288;16.314;2024-02-21T05:56:01;13.7;;;4.0;;
74741;SDS011;76291;48.288;16.314;2024-02-21T05:57:00;13.7;;;4.0;;
74741;SDS011;76291;48.288;16.314;2024-02-21T05:58:00;13.4;;;4.0;;
74741;SDS011;76291;48.288;16.314;2024-02-21T05:59:00;13.4;;;4.0;;
74741;SDS011;76291;48.288;16.314;2024-02-21T06:00:03;13.4;;;4.0;;
74741;SDS011;76291;48.288;16.314;2024-02-21T06:01:00;13.4;;;4.0;;